createdAt,value
2023-02-14T00:00:53.487Z,55.55
2023-02-14T00:03:21.271Z,52.90
2023-02-14T00:05:49.579Z,53.22
2023-02-14T00:08:17.089Z,51.42
2023-02-14T00:10:44.781Z,60.10
2023-02-14T00:13:12.228Z,58.13
2023-02-14T00:15:39.580Z,56.13
2023-02-14T00:18:07.083Z,60.70
2023-02-14T00:20:34.737Z,56.95
2023-02-14T00:23:02.427Z,56.22
2023-02-14T00:25:30.032Z,58.85
2023-02-14T00:27:57.532Z,54.22
2023-02-14T00:30:25.089Z,54.33
2023-02-14T00:32:52.465Z,60.25
2023-02-14T00:35:19.979Z,55.70
2023-02-14T00:37:47.874Z,58.15
2023-02-14T00:40:15.737Z,60.92
2023-02-14T00:42:43.335Z,57.88
2023-02-14T00:45:10.886Z,59.40
2023-02-14T00:47:38.343Z,59.03
2023-02-14T00:50:06.083Z,57.67
2023-02-14T00:52:33.735Z,52.20
2023-02-14T00:55:01.281Z,52.00
2023-02-14T00:57:28.835Z,59.83
2023-02-14T00:59:56.181Z,56.42
2023-02-14T01:02:23.672Z,64.90
2023-02-14T01:04:51.142Z,63.95
2023-02-14T01:07:18.741Z,54.22
2023-02-14T01:09:46.326Z,60.47
2023-02-14T01:12:13.679Z,61.28
2023-02-14T01:14:41.082Z,59.85
2023-02-14T01:17:08.581Z,60.97
2023-02-14T01:19:36.777Z,61.70
2023-02-14T01:22:04.080Z,61.65
2023-02-14T01:24:31.668Z,61.38
2023-02-14T01:26:59.223Z,58.80
2023-02-14T01:29:26.801Z,63.45
2023-02-14T01:31:54.492Z,51.78
2023-02-14T01:34:21.976Z,58.05
2023-02-14T01:36:49.276Z,55.80
2023-02-14T01:39:18.618Z,63.00
2023-02-14T01:41:50.592Z,58.75
2023-02-14T01:44:17.994Z,51.22
2023-02-14T01:46:46.234Z,60.13
2023-02-14T01:49:15.588Z,54.50
2023-02-14T01:52:03.885Z,56.15
2023-02-14T01:54:35.227Z,64.53
2023-02-14T01:57:06.539Z,57.88
2023-02-14T01:59:39.880Z,59.67
2023-02-14T02:02:07.911Z,60.85
2023-02-14T02:04:40.589Z,57.25
2023-02-14T02:07:12.339Z,53.50
2023-02-14T02:09:46.976Z,58.13
2023-02-14T02:12:14.637Z,55.50
2023-02-14T02:14:43.334Z,59.28
2023-02-14T02:17:28.792Z,58.88
2023-02-14T02:19:56.250Z,60.60
2023-02-14T02:22:54.081Z,65.80
2023-02-14T02:25:58.630Z,64.57
2023-02-14T02:28:41.004Z,57.60
2023-02-14T02:31:26.811Z,55.30
2023-02-14T02:34:25.271Z,59.47
2023-02-14T02:37:19.890Z,58.95
2023-02-14T02:40:04.977Z,54.55
2023-02-14T02:42:49.048Z,61.97
2023-02-14T02:46:27.109Z,55.97
2023-02-14T02:49:02.289Z,66.70
2023-02-14T02:52:05.426Z,62.90
2023-02-14T02:54:43.626Z,63.95
2023-02-14T02:57:19.622Z,58.03
2023-02-14T02:59:47.678Z,64.10
2023-02-14T03:02:30.944Z,62.33
2023-02-14T03:05:02.584Z,62.08
2023-02-14T03:07:37.242Z,63.88
2023-02-14T03:10:15.534Z,63.40
2023-02-14T03:13:01.657Z,57.70
2023-02-14T03:16:05.591Z,65.00
2023-02-14T03:19:10.684Z,61.03
2023-02-14T03:21:46.784Z,62.90
2023-02-14T03:24:27.949Z,65.63
2023-02-14T03:27:20.831Z,63.40
2023-02-14T03:29:51.432Z,55.28
2023-02-14T03:32:36.671Z,61.78
2023-02-14T03:35:11.675Z,59.38
2023-02-14T03:37:47.228Z,57.30
2023-02-14T03:40:25.233Z,61.50
2023-02-14T03:43:02.081Z,61.40
2023-02-14T03:45:34.833Z,69.80
2023-02-14T03:48:06.907Z,62.65
2023-02-14T03:50:36.425Z,56.63
2023-02-14T03:53:07.340Z,58.13
2023-02-14T03:56:08.603Z,61.50
2023-02-14T04:01:26.804Z,60.57
2023-02-14T04:03:57.508Z,65.47
2023-02-14T04:06:25.034Z,69.85
2023-02-14T04:08:52.694Z,61.58
2023-02-14T04:11:20.326Z,59.97
2023-02-14T04:13:47.719Z,60.40
2023-02-14T04:16:15.168Z,67.88
2023-02-14T04:19:01.167Z,63.20
2023-02-14T04:21:28.519Z,59.10
2023-02-14T04:23:56.025Z,59.63
2023-02-14T04:26:23.625Z,65.63
2023-02-14T04:28:51.021Z,71.15
2023-02-14T04:31:18.437Z,59.50
2023-02-14T04:33:48.152Z,55.80
2023-02-14T04:36:15.563Z,60.53
2023-02-14T04:38:43.124Z,62.90
2023-02-14T04:41:10.628Z,57.63
2023-02-14T04:43:37.972Z,60.88
2023-02-14T04:46:05.320Z,69.30
2023-02-14T04:48:32.907Z,68.18
2023-02-14T04:51:00.781Z,68.68
2023-02-14T04:53:28.324Z,66.95
2023-02-14T04:55:55.785Z,64.20
2023-02-14T04:58:23.524Z,67.43
2023-02-14T05:00:51.013Z,63.28
2023-02-14T05:03:18.382Z,66.00
2023-02-14T05:05:46.267Z,61.67
2023-02-14T05:08:14.516Z,68.15
2023-02-14T05:10:42.021Z,61.60
2023-02-14T05:13:09.651Z,63.95
2023-02-14T05:15:38.525Z,59.78
2023-02-14T05:18:06.371Z,70.60
2023-02-14T05:20:33.916Z,65.32
2023-02-14T05:23:03.464Z,68.47
2023-02-14T05:25:31.578Z,64.18
2023-02-14T05:27:59.066Z,57.92
2023-02-14T05:30:28.104Z,62.72
2023-02-14T05:32:55.565Z,63.22
2023-02-14T05:35:23.216Z,62.85
2023-02-14T05:37:50.769Z,66.18
2023-02-14T05:40:18.317Z,64.13
2023-02-14T05:42:45.922Z,63.65
2023-02-14T05:45:13.717Z,60.65
2023-02-14T05:47:41.419Z,62.95
2023-02-14T05:50:09.303Z,54.55
2023-02-14T05:52:37.727Z,63.00
2023-02-14T05:55:05.766Z,61.95
2023-02-14T05:57:33.442Z,69.72
2023-02-14T06:00:01.128Z,63.88
2023-02-14T06:02:28.567Z,65.78
2023-02-14T06:04:55.939Z,65.57
2023-02-14T06:07:23.881Z,62.47
2023-02-14T06:09:51.472Z,67.60
2023-02-14T06:12:18.971Z,66.43
2023-02-14T06:14:46.323Z,64.22
2023-02-14T06:17:13.774Z,64.38
2023-02-14T06:19:41.559Z,66.53
2023-02-14T06:22:09.622Z,66.57
2023-02-14T06:24:37.214Z,73.25
2023-02-14T06:27:04.626Z,68.95
2023-02-14T06:29:31.955Z,61.05
2023-02-14T06:32:05.745Z,63.78
2023-02-14T06:34:34.425Z,64.90
2023-02-14T06:37:01.977Z,64.63
2023-02-14T06:39:29.425Z,68.32
2023-02-14T06:41:57.006Z,64.85
2023-02-14T06:44:24.323Z,66.85
2023-02-14T06:46:51.642Z,67.05
2023-02-14T06:49:19.372Z,66.03
2023-02-14T06:51:47.578Z,66.60
2023-02-14T06:54:15.032Z,71.30
2023-02-14T06:56:42.767Z,63.65
2023-02-14T06:59:10.269Z,62.80
2023-02-14T07:01:37.730Z,66.50
2023-02-14T07:04:05.527Z,65.25
2023-02-14T07:06:33.072Z,67.45
2023-02-14T07:09:00.567Z,69.97
2023-02-14T07:11:28.741Z,69.03
2023-02-14T07:13:56.119Z,69.10
2023-02-14T07:16:23.952Z,71.78
2023-02-14T07:18:51.471Z,69.93
2023-02-14T07:21:20.280Z,66.95
2023-02-14T07:23:50.075Z,68.22
2023-02-14T07:26:18.369Z,64.88
2023-02-14T07:28:49.170Z,69.45
2023-02-14T07:31:18.490Z,66.00
2023-02-14T07:33:46.089Z,62.67
2023-02-14T07:36:15.567Z,62.70
2023-02-14T07:38:43.054Z,65.22
2023-02-14T07:41:10.375Z,66.05
2023-02-14T07:43:39.659Z,68.03
2023-02-14T07:46:07.215Z,68.20
2023-02-14T07:48:34.810Z,63.58
2023-02-14T07:51:03.526Z,63.90
2023-02-14T07:53:31.175Z,68.00
2023-02-14T07:55:58.618Z,59.92
2023-02-14T07:58:26.213Z,67.30
2023-02-14T08:00:54.670Z,59.28
2023-02-14T08:03:22.021Z,68.60
2023-02-14T08:05:57.264Z,65.75
2023-02-14T08:08:26.882Z,60.47
2023-02-14T08:10:54.217Z,66.38
2023-02-14T08:13:21.728Z,63.05
2023-02-14T08:16:05.788Z,60.00
2023-02-14T08:18:39.111Z,60.47
2023-02-14T08:21:09.314Z,68.70
2023-02-14T08:23:37.859Z,74.57
2023-02-14T08:26:05.660Z,64.60
2023-02-14T08:28:34.936Z,75.03
2023-02-14T08:31:04.598Z,65.25
2023-02-14T08:33:32.084Z,61.90
2023-02-14T08:35:59.410Z,74.28
2023-02-14T08:38:27.284Z,70.38
2023-02-14T08:40:55.418Z,59.80
2023-02-14T08:43:22.970Z,65.85
2023-02-14T08:45:53.961Z,62.22
2023-02-14T08:48:23.503Z,65.47
2023-02-14T08:50:51.120Z,60.63
2023-02-14T08:53:18.582Z,64.80
2023-02-14T08:55:46.063Z,70.28
2023-02-14T08:58:14.353Z,67.47
2023-02-14T09:00:41.868Z,68.65
2023-02-14T09:03:10.649Z,67.38
2023-02-14T09:05:38.666Z,76.97
2023-02-14T09:08:06.518Z,73.32
2023-02-14T09:10:33.925Z,63.53
2023-02-14T09:13:01.611Z,67.30
2023-02-14T09:15:29.076Z,68.10
2023-02-14T09:17:56.762Z,75.72
2023-02-14T09:20:24.804Z,64.93
2023-02-14T09:22:56.408Z,63.67
2023-02-14T09:25:24.385Z,67.78
2023-02-14T09:27:52.671Z,66.18
2023-02-14T09:30:20.204Z,68.80
2023-02-14T09:32:47.895Z,70.53
2023-02-14T09:35:15.512Z,65.80
2023-02-14T09:37:43.114Z,63.17
2023-02-14T09:40:15.404Z,63.20
2023-02-14T09:43:15.010Z,64.22
2023-02-14T09:45:47.015Z,65.20
2023-02-14T09:48:38.166Z,65.80
2023-02-14T09:53:45.261Z,64.28
2023-02-14T09:56:50.350Z,68.25
2023-02-14T09:59:44.598Z,70.68
2023-02-14T10:02:24.471Z,70.38
2023-02-14T10:05:13.323Z,64.32
2023-02-14T10:08:02.365Z,67.45
2023-02-14T10:10:47.895Z,70.93
2023-02-14T10:13:26.809Z,74.50
2023-02-14T10:16:27.155Z,64.82
2023-02-14T10:19:01.705Z,69.75
2023-02-14T10:21:41.664Z,74.50
2023-02-14T10:24:33.179Z,70.63
2023-02-14T10:27:13.012Z,74.82
2023-02-14T10:29:42.100Z,74.38
2023-02-14T10:32:15.305Z,75.15
2023-02-14T10:34:51.019Z,65.38
2023-02-14T10:37:42.505Z,64.72
2023-02-14T10:40:49.705Z,62.45
2023-02-14T10:43:38.759Z,77.05
2023-02-14T10:46:28.349Z,64.30
2023-02-14T10:48:55.861Z,65.25
2023-02-14T10:51:43.632Z,65.10
2023-02-14T10:54:27.006Z,66.63
2023-02-14T10:57:05.686Z,73.03
2023-02-14T10:59:54.148Z,71.35
2023-02-14T11:02:27.471Z,69.30
2023-02-14T11:04:56.146Z,78.75
2023-02-14T11:07:23.938Z,78.10
2023-02-14T11:09:51.484Z,75.53
2023-02-14T11:12:37.628Z,71.20
2023-02-14T11:15:19.577Z,64.45
2023-02-14T11:17:47.828Z,54.92
2023-02-14T11:20:30.635Z,60.53
2023-02-14T11:22:58.456Z,56.65
2023-02-14T11:25:32.257Z,54.00
2023-02-14T11:28:04.509Z,57.65
2023-02-14T11:30:41.052Z,52.75
2023-02-14T11:33:30.913Z,54.85
2023-02-14T11:35:59.357Z,51.75
2023-02-14T11:38:38.359Z,62.58
2023-02-14T11:41:10.156Z,67.30
2023-02-14T11:43:45.502Z,61.13
2023-02-14T11:46:21.115Z,62.53
2023-02-14T11:48:58.007Z,60.90
2023-02-14T11:51:33.860Z,60.95
2023-02-14T11:54:06.347Z,49.88
2023-02-14T11:56:56.630Z,57.85
2023-02-14T11:59:49.553Z,61.67
2023-02-14T12:02:37.765Z,61.42
2023-02-14T12:05:08.466Z,57.63
2023-02-14T12:07:38.205Z,55.95
2023-02-14T12:10:17.609Z,55.85
2023-02-14T12:12:54.920Z,60.75
2023-02-14T12:15:40.336Z,56.13
2023-02-14T12:18:37.610Z,54.50
2023-02-14T12:21:36.660Z,54.85
2023-02-14T12:24:32.398Z,47.33
2023-02-14T12:27:33.216Z,53.85
2023-02-14T12:30:35.262Z,54.80
2023-02-14T12:33:05.003Z,48.90
2023-02-14T12:35:57.611Z,59.70
2023-02-14T12:39:06.322Z,49.60
2023-02-14T12:41:49.089Z,56.58
2023-02-14T12:44:28.503Z,50.72
2023-02-14T12:47:05.449Z,44.20
2023-02-14T12:50:14.298Z,44.78
2023-02-14T12:53:16.706Z,50.92
2023-02-14T12:56:10.803Z,43.83
2023-02-14T12:58:47.253Z,42.22
2023-02-14T13:01:38.579Z,41.78
2023-02-14T13:04:44.142Z,39.58
2023-02-14T13:07:38.174Z,44.80
2023-02-14T13:10:24.055Z,47.58
2023-02-14T13:13:12.272Z,40.78
2023-02-14T13:15:52.993Z,40.40
2023-02-14T13:18:43.103Z,39.58
2023-02-14T13:21:14.453Z,34.30
2023-02-14T13:23:46.609Z,36.08
2023-02-14T13:26:27.295Z,34.03
2023-02-14T13:29:14.447Z,31.95
2023-02-14T13:31:42.673Z,30.85
2023-02-14T13:34:31.786Z,34.78
2023-02-14T13:37:02.624Z,32.63
2023-02-14T13:39:52.297Z,24.70
2023-02-14T13:42:50.550Z,21.35
2023-02-14T13:45:32.636Z,27.50
2023-02-14T13:48:19.798Z,25.25
2023-02-14T13:50:52.994Z,30.75
2023-02-14T13:53:37.445Z,26.98
2023-02-14T13:56:27.022Z,34.30
2023-02-14T13:59:00.513Z,29.17
2023-02-14T14:01:30.606Z,33.97
2023-02-14T14:04:02.277Z,31.20
2023-02-14T14:06:30.254Z,26.50
2023-02-14T14:08:58.042Z,27.92
2023-02-14T14:11:25.552Z,33.13
2023-02-14T14:14:21.257Z,31.30
2023-02-14T14:17:00.118Z,30.33
2023-02-14T14:19:27.787Z,28.98
2023-02-14T14:22:04.633Z,29.10
2023-02-14T14:24:34.807Z,31.23
2023-02-14T14:27:07.805Z,32.97
2023-02-14T14:29:39.234Z,34.28
2023-02-14T14:32:29.559Z,33.97
2023-02-14T14:35:03.705Z,30.67
2023-02-14T14:37:47.345Z,36.00
2023-02-14T14:40:34.996Z,34.58
2023-02-14T14:43:13.368Z,27.27
2023-02-14T14:45:41.886Z,27.35
2023-02-14T14:48:18.283Z,27.10
2023-02-14T14:50:47.193Z,28.23
2023-02-14T14:53:26.046Z,26.50
2023-02-14T14:55:54.914Z,26.90
2023-02-14T14:58:35.625Z,32.47
2023-02-14T15:01:03.963Z,29.05
2023-02-14T15:03:31.580Z,30.20
2023-02-14T15:06:20.794Z,27.88
2023-02-14T15:08:49.796Z,33.75
2023-02-14T15:11:41.050Z,35.35
2023-02-14T15:14:15.673Z,33.28
2023-02-14T15:16:51.907Z,27.77
2023-02-14T15:19:26.759Z,31.17
2023-02-14T15:21:54.397Z,37.40
2023-02-14T15:24:22.047Z,29.77
2023-02-14T15:26:51.589Z,35.88
2023-02-14T15:29:24.663Z,36.22
2023-02-14T15:31:53.303Z,34.50
2023-02-14T15:34:24.497Z,33.38
2023-02-14T15:36:54.025Z,38.75
2023-02-14T15:39:25.919Z,38.58
2023-02-14T15:41:55.536Z,32.97
2023-02-14T15:44:25.348Z,34.67
2023-02-14T15:46:59.575Z,35.20
2023-02-14T15:49:36.716Z,26.35
2023-02-14T15:52:06.392Z,41.40
2023-02-14T15:54:38.154Z,33.97
2023-02-14T15:57:17.200Z,28.25
2023-02-14T15:59:44.645Z,26.52
2023-02-14T16:02:23.775Z,41.00
2023-02-14T16:04:51.293Z,32.90
2023-02-14T16:07:28.549Z,29.33
2023-02-14T16:10:20.540Z,31.67
2023-02-14T16:13:20.296Z,34.83
2023-02-14T16:16:20.292Z,28.52
2023-02-14T16:18:50.096Z,31.90
2023-02-14T16:21:21.508Z,35.40
2023-02-14T16:24:10.911Z,30.05
2023-02-14T16:26:41.082Z,33.53
2023-02-14T16:29:14.795Z,34.08
2023-02-14T16:32:01.204Z,23.48
2023-02-14T16:34:34.740Z,27.73
2023-02-14T16:37:08.698Z,27.73
2023-02-14T16:39:38.586Z,27.45
2023-02-14T16:42:06.331Z,25.60
2023-02-14T16:44:33.832Z,29.65
2023-02-14T16:47:02.346Z,22.25
2023-02-14T16:49:30.144Z,25.13
2023-02-14T16:51:57.680Z,25.40
2023-02-14T16:54:26.798Z,24.20
2023-02-14T16:57:03.189Z,23.15
2023-02-14T16:59:31.482Z,28.30
2023-02-14T17:01:59.786Z,27.48
2023-02-14T17:04:27.185Z,19.95
2023-02-14T17:06:57.486Z,24.40
2023-02-14T17:09:29.751Z,30.60
2023-02-14T17:12:03.482Z,23.08
2023-02-14T17:14:36.862Z,21.55
2023-02-14T17:17:04.539Z,29.88
2023-02-14T17:19:33.239Z,24.05
2023-02-14T17:22:00.937Z,27.20
2023-02-14T17:24:28.475Z,30.70
2023-02-14T17:26:56.089Z,35.00
2023-02-14T17:29:23.436Z,32.08
2023-02-14T17:31:50.828Z,24.35
2023-02-14T17:34:18.392Z,31.38
2023-02-14T17:36:45.951Z,32.25
2023-02-14T17:39:14.847Z,34.13
2023-02-14T17:41:42.180Z,36.97
2023-02-14T17:44:09.687Z,33.58
2023-02-14T17:46:37.050Z,27.00
2023-02-14T17:49:04.480Z,28.52
2023-02-14T17:51:32.097Z,28.80
2023-02-14T17:53:59.592Z,24.58
2023-02-14T17:56:27.287Z,30.55
2023-02-14T17:58:55.424Z,32.35
2023-02-14T18:01:28.524Z,31.17
2023-02-14T18:03:55.998Z,32.33
2023-02-14T18:06:24.136Z,33.50
2023-02-14T18:08:57.011Z,24.60
2023-02-14T18:11:27.039Z,32.72
2023-02-14T18:13:55.937Z,29.13
2023-02-14T18:16:24.888Z,25.48
2023-02-14T18:18:52.386Z,28.95
2023-02-14T18:21:21.142Z,26.63
2023-02-14T18:23:48.715Z,32.40
2023-02-14T18:26:18.139Z,32.40
2023-02-14T18:28:45.990Z,32.53
2023-02-14T18:31:16.372Z,33.92
2023-02-14T18:33:44.584Z,33.30
2023-02-14T18:36:16.579Z,42.17
2023-02-14T18:38:46.085Z,38.88
2023-02-14T18:41:16.334Z,39.42
2023-02-14T18:43:44.661Z,38.63
2023-02-14T18:46:15.116Z,40.85
2023-02-14T18:48:42.534Z,42.47
2023-02-14T18:51:12.331Z,42.10
2023-02-14T18:53:41.069Z,37.95
2023-02-14T18:56:12.216Z,40.78
2023-02-14T18:58:40.923Z,39.53
2023-02-14T19:01:16.620Z,41.35
2023-02-14T19:03:44.795Z,34.38
2023-02-14T19:06:13.112Z,38.58
2023-02-14T19:08:41.172Z,44.20
2023-02-14T19:11:14.328Z,37.42
2023-02-14T19:13:49.999Z,32.05
2023-02-14T19:16:24.541Z,42.38
2023-02-14T19:18:53.894Z,42.05
2023-02-14T19:21:24.328Z,43.92
2023-02-14T19:23:54.093Z,41.17
2023-02-14T19:26:23.137Z,32.83
2023-02-14T19:28:55.834Z,30.58
2023-02-14T19:31:24.271Z,34.08
2023-02-14T19:33:52.579Z,32.78
2023-02-14T19:36:22.325Z,39.33
2023-02-14T19:38:52.506Z,32.08
2023-02-14T19:41:30.292Z,40.72
2023-02-14T19:43:59.039Z,38.55
2023-02-14T19:46:28.175Z,41.05
2023-02-14T19:48:57.290Z,39.65
2023-02-14T19:51:33.915Z,41.35
2023-02-14T19:54:07.209Z,33.83
2023-02-14T19:56:37.972Z,36.38
2023-02-14T19:59:09.982Z,33.55
2023-02-14T20:01:40.125Z,36.38
2023-02-14T20:04:10.339Z,35.45
2023-02-14T20:06:38.452Z,32.20
2023-02-14T20:09:06.769Z,35.83
2023-02-14T20:11:41.528Z,36.63
2023-02-14T20:14:09.698Z,33.53
2023-02-14T20:16:37.949Z,33.75
2023-02-14T20:19:08.925Z,42.45
2023-02-14T20:21:36.363Z,39.65
2023-02-14T20:24:05.490Z,37.88
2023-02-14T20:26:34.472Z,32.20
2023-02-14T20:29:04.299Z,38.25
2023-02-14T20:31:35.117Z,35.38
2023-02-14T20:36:31.871Z,45.58
2023-02-14T20:39:02.743Z,40.97
2023-02-14T20:41:34.435Z,38.90
2023-02-14T20:44:05.264Z,41.47
2023-02-14T20:49:02.126Z,44.53
2023-02-14T20:51:29.836Z,43.72
2023-02-14T20:53:57.427Z,46.85
2023-02-14T20:56:25.071Z,42.30
2023-02-14T20:58:53.037Z,41.95
2023-02-14T21:01:23.844Z,49.80
2023-02-14T21:03:53.327Z,54.10
2023-02-14T21:06:23.479Z,169.50
2023-02-14T21:08:51.826Z,99.25
2023-02-14T21:11:21.032Z,79.95
2023-02-14T21:13:49.113Z,74.07
2023-02-14T21:16:19.196Z,53.88
2023-02-14T21:18:52.849Z,50.15
2023-02-14T21:21:22.982Z,59.20
2023-02-14T21:23:52.373Z,49.78
2023-02-14T21:26:21.379Z,56.65
2023-02-14T21:28:50.343Z,56.50
2023-02-14T21:31:22.033Z,53.38
2023-02-14T21:33:54.639Z,47.20
2023-02-14T21:36:24.477Z,54.20
2023-02-14T21:38:52.474Z,52.42
2023-02-14T21:41:23.069Z,52.60
2023-02-14T21:43:53.427Z,211.97
2023-02-14T21:46:27.418Z,291.65
2023-02-14T21:49:15.884Z,213.90
2023-02-14T21:51:45.060Z,109.82
2023-02-14T21:54:13.481Z,100.25
2023-02-14T21:56:43.951Z,94.00
2023-02-14T21:59:12.029Z,80.80
2023-02-14T22:01:42.252Z,71.03
2023-02-14T22:04:12.706Z,68.88
2023-02-14T22:06:41.810Z,62.63
2023-02-14T22:09:12.388Z,66.63
2023-02-14T22:11:40.435Z,60.63
2023-02-14T22:14:08.478Z,59.40
2023-02-14T22:16:39.399Z,55.78
2023-02-14T22:21:35.679Z,53.75
2023-02-14T22:24:04.425Z,56.47
2023-02-14T22:26:35.479Z,54.55
2023-02-14T22:29:05.156Z,54.65
2023-02-14T22:31:36.432Z,60.45
2023-02-14T22:34:06.018Z,60.28
2023-02-14T22:36:35.285Z,60.35
2023-02-14T22:39:03.420Z,56.00
2023-02-14T22:41:30.941Z,57.92
2023-02-14T22:43:58.480Z,57.17
2023-02-14T22:46:28.401Z,58.60
2023-02-14T22:48:57.202Z,61.15
2023-02-14T22:51:39.311Z,62.65
2023-02-14T22:54:16.340Z,58.65
2023-02-14T22:56:46.656Z,64.68
2023-02-14T22:59:17.080Z,62.42
2023-02-14T23:01:45.315Z,64.63
2023-02-14T23:04:13.088Z,62.40
2023-02-14T23:06:40.765Z,53.50
2023-02-14T23:09:10.258Z,54.13
2023-02-14T23:11:40.536Z,61.97
2023-02-14T23:14:27.473Z,65.63
2023-02-14T23:17:13.371Z,64.57
2023-02-14T23:19:59.801Z,63.05
2023-02-14T23:22:30.239Z,66.78
2023-02-14T23:25:00.679Z,61.30
2023-02-14T23:27:38.044Z,63.53
2023-02-14T23:30:07.716Z,69.53
2023-02-14T23:32:35.818Z,64.72
2023-02-14T23:35:03.568Z,64.75
2023-02-14T23:37:31.266Z,72.13
2023-02-14T23:39:59.014Z,68.18
2023-02-14T23:42:26.683Z,62.30
2023-02-14T23:44:54.086Z,66.15
2023-02-14T23:47:21.375Z,71.00
2023-02-14T23:49:48.895Z,74.72
2023-02-14T23:52:16.608Z,63.92
2023-02-14T23:54:44.375Z,68.00
2023-02-14T23:57:12.054Z,65.72
2023-02-14T23:59:39.728Z,73.00
